Time,TemperatureF,DewpointF,PressureIn,WindDirection,WindDirectionDegrees,WindSpeedMPH,WindSpeedGustMPH,Humidity,HourlyPrecipIn,Conditions,Clouds,dailyrainin,SoftwareType,DateUTC
2013-07-02 08:00:00,82.0,64.7,29.69,North,0,0.0,0.0,0,0.00,,FEW240,0.00,VWS V14.01,2013-07-02 14:00:00,
2013-07-02 09:01:00,82.0,64.7,29.69,North,0,0.0,0.0,0,0.00,,FEW240,0.00,VWS V14.01,2013-07-02 15:01:00,
2013-07-02 09:06:00,75.0,63.6,29.71,WSW,245,0.0,0.0,0,0.00,,FEW240,0.00,VWS V14.01,2013-07-02 15:06:00,
2013-07-02 09:11:00,75.0,65.3,29.71,WSW,245,0.0,0.0,0,0.00,,FEW240,0.00,VWS V14.01,2013-07-02 15:11:00,
2013-07-02 09:28:00,32.0,32.0,0.00,North,0,0.0,0.0,0,0.00,,FEW240,0.00,VWS V14.01,2013-07-02 15:28:00,
2013-07-02 09:33:00,77.0,64.3,29.70,WSW,245,0.0,0.0,0,0.00,,FEW240,0.00,VWS V14.01,2013-07-02 15:33:00,
2013-07-02 09:38:00,77.0,64.7,29.70,SSE,163,0.0,0.0,0,0.00,,FEW240,0.00,VWS V14.01,2013-07-02 15:38:00,
2013-07-02 09:43:00,77.0,64.7,29.70,ESE,117,0.0,1.0,0,0.00,,FEW240,0.00,VWS V14.01,2013-07-02 15:43:00,
2013-07-02 09:48:00,77.0,66.6,29.70,ESE,117,0.0,1.0,0,0.00,,FEW240,0.00,VWS V14.01,2013-07-02 15:48:00,
2013-07-02 09:53:00,77.0,64.9,29.70,East,83,0.0,1.0,0,0.00,,FEW240,0.00,VWS V14.01,2013-07-02 15:53:00,
2013-07-02 09:58:00,77.0,64.1,29.70,NNE,25,0.0,1.0,0,0.00,,FEW240,0.00,VWS V14.01,2013-07-02 15:58:00,
2013-07-02 10:03:00,77.0,64.4,29.70,North,354,0.0,0.0,0,0.00,,FEW240,0.00,VWS V14.01,2013-07-02 16:03:00,
2013-07-02 10:08:00,77.0,64.4,29.70,WSW,257,0.0,0.0,0,0.00,,FEW240,0.00,VWS V14.01,2013-07-02 16:08:00,
2013-07-02 10:13:00,77.0,64.0,29.70,West,266,0.0,0.0,0,0.00,,FEW240,0.00,VWS V14.01,2013-07-02 16:13:00,
2013-07-02 10:29:00,77.0,61.7,29.70,SW,229,0.0,0.0,0,0.00,,FEW240,0.00,VWS V14.01,2013-07-02 16:29:00,
2013-07-02 10:34:00,32.0,32.0,0.00,North,0,0.0,0.0,0,0.00,,FEW240,0.00,VWS V14.01,2013-07-02 16:34:00,
2013-07-02 10:39:00,77.0,64.5,29.71,West,263,0.0,0.0,0,0.00,,FEW240,0.00,VWS V14.01,2013-07-02 16:39:00,
2013-07-02 10:44:00,77.0,62.3,29.71,West,267,0.0,0.0,0,0.00,,FEW240,0.00,VWS V14.01,2013-07-02 16:44:00,
2013-07-02 10:52:00,32.0,32.0,0.00,North,0,0.0,0.0,0,0.00,,FEW240,0.00,VWS V14.01,2013-07-02 16:52:00,
2013-07-02 10:56:00,77.0,64.6,29.70,WNW,300,0.0,0.0,0,0.00,,FEW240,0.00,VWS V14.01,2013-07-02 16:56:00,
2013-07-02 11:01:00,77.0,65.1,29.70,NW,304,0.0,0.0,0,0.00,,FEW240,0.00,VWS V14.01,2013-07-02 17:01:00,
2013-07-02 11:06:00,77.0,63.6,29.70,WNW,296,0.0,0.0,0,0.00,,FEW240,0.00,VWS V14.01,2013-07-02 17:06:00,
2013-07-02 11:11:00,77.0,64.1,29.70,WNW,296,0.0,0.0,0,0.00,,FEW240,0.00,VWS V14.01,2013-07-02 17:11:00,
2013-07-02 11:17:00,77.0,64.1,29.69,WNW,296,0.0,0.0,0,0.00,,FEW240,0.00,VWS V14.01,2013-07-02 17:17:00,
2013-07-02 11:22:00,77.0,63.9,29.69,WNW,291,0.0,0.0,0,0.00,,FEW240,0.00,VWS V14.01,2013-07-02 17:22:00,
2013-07-02 11:27:00,77.0,63.8,29.69,WNW,290,0.0,0.0,0,0.00,,FEW240,0.00,VWS V14.01,2013-07-02 17:27:00,
2013-07-02 11:32:00,77.0,63.4,29.69,West,260,0.0,0.0,0,0.00,,FEW240,0.00,VWS V14.01,2013-07-02 17:32:00,
2013-07-02 11:37:00,77.0,64.3,29.69,West,266,0.0,0.0,0,0.00,,FEW240,0.00,VWS V14.01,2013-07-02 17:37:00,
2013-07-02 11:41:00,77.0,64.4,29.69,West,275,0.0,0.0,0,0.00,,FEW240,0.00,VWS V14.01,2013-07-02 17:41:00,
2013-07-02 11:46:00,77.0,62.8,29.69,West,271,0.0,0.0,0,0.00,,FEW240,0.00,VWS V14.01,2013-07-02 17:46:00,
2013-07-02 11:51:00,77.0,63.6,29.69,WSW,258,0.0,0.0,0,0.00,,FEW240,0.00,VWS V14.01,2013-07-02 17:51:00,
2013-07-02 11:57:00,77.0,65.5,29.69,West,279,0.0,0.0,0,0.00,,FEW240,0.00,VWS V14.01,2013-07-02 17:57:00,
2013-07-02 12:01:00,77.0,65.9,29.68,West,279,0.0,0.0,0,0.00,,FEW240,0.00,VWS V14.01,2013-07-02 18:01:00,
2013-07-02 12:06:00,77.0,63.6,29.68,WSW,239,0.0,0.0,0,0.00,,FEW240,0.00,VWS V14.01,2013-07-02 18:06:00,
2013-07-02 12:11:00,77.0,65.4,29.68,West,260,0.0,0.0,0,0.00,,FEW240,0.00,VWS V14.01,2013-07-02 18:11:00,
2013-07-02 12:16:00,77.0,63.5,29.68,West,268,0.0,0.0,0,0.00,,FEW240,0.00,VWS V14.01,2013-07-02 18:16:00,
2013-07-02 12:21:00,77.0,63.5,29.68,West,270,0.0,0.0,0,0.00,,FEW240,0.00,VWS V14.01,2013-07-02 18:21:00,
2013-07-02 12:26:00,77.0,63.5,29.68,WSW,255,0.0,0.0,0,0.00,,FEW240,0.00,VWS V14.01,2013-07-02 18:26:00,
2013-07-02 12:31:00,77.0,65.5,29.68,WSW,257,0.0,0.0,0,0.00,,FEW240,0.00,VWS V14.01,2013-07-02 18:31:00,
2013-07-02 12:36:00,77.0,64.2,29.68,WSW,258,0.0,0.0,0,0.00,,FEW240,0.00,VWS V14.01,2013-07-02 18:36:00,
2013-07-02 12:41:00,77.0,68.1,29.68,West,259,0.0,0.0,0,0.00,,FEW240,0.00,VWS V14.01,2013-07-02 18:41:00,
2013-07-02 12:47:00,77.0,64.3,29.67,West,259,0.0,0.0,0,0.00,,FEW240,0.00,VWS V14.01,2013-07-02 18:47:00,
2013-07-02 12:51:00,77.0,64.5,29.67,WSW,243,0.0,0.0,0,0.00,,FEW240,0.00,VWS V14.01,2013-07-02 18:51:00,
2013-07-02 12:56:00,77.0,64.1,29.67,West,260,0.0,0.0,0,0.00,,FEW240,0.00,VWS V14.01,2013-07-02 18:56:00,
2013-07-02 13:01:00,77.0,64.5,29.66,WSW,252,0.0,0.0,0,0.00,,FEW240,0.00,VWS V14.01,2013-07-02 19:01:00,
2013-07-02 13:07:00,77.0,64.7,29.66,West,272,0.0,0.0,0,0.00,,FEW240,0.00,VWS V14.01,2013-07-02 19:07:00,
2013-07-02 13:12:00,77.0,64.4,29.66,West,262,0.0,0.0,0,0.00,,FEW240,0.00,VWS V14.01,2013-07-02 19:12:00,
2013-07-02 13:18:00,32.0,32.0,0.00,North,0,0.0,0.0,0,0.00,,FEW240,0.00,VWS V14.01,2013-07-02 19:18:00,